Niznij Novgorod, Russia
Current Conditions -  °F | °C
As of 11:30 PM on Friday 28 Nov 2014 (Local Time) from UWGG Reporting Station
Light Snow Light Snow  
Wind Chill: 13°   Ceiling: 700
Heat Index: 19°   Visibility: 5mi
Dew Point: 18°   Wind: 4mph
Humidity: 93%   Direction: 120°ESE
Pressure: 30.71"   Gusts: NA
Location:  56.3°N, 43.93°E
Report Text: UWGG 282030Z 12002MPS 8000 -SG OVC007 M07/M08 Q1040 NOSIG36450142 RMK QFE772
Loading
Personal Weather Stations






























Interactive Weather Map New forecast layout! Learn more

10-Day Weather Forecast

Advertisements
Track Severe Weather on mobile